AirNav   Air Wisconsin Up To $57,000 Bonus
 
 830 users online  

77FD Memorial Regional Hospital Heliport
Hollywood, Florida, USA

GOING TO HOLLYWOOD?


FAA INFORMATION EFFECTIVE 02 JANUARY 2020

Location

FAA Identifier: 77FD
Lat/Long: 26-01-07.5400N 080-10-52.7700W
26-01.125667N 080-10.879500W
26.0187611,-80.1813250
(estimated)
Elevation: 62 ft. / 19 m (estimated)
Variation: 04W (1990)
Time zone: UTC -5 (UTC -4 during Daylight Saving Time)
Zip code: 33021

Heliport Operations

Heliport use: Private use, MEDICAL USE.
Activation date: 03/1993
Control tower: no
ARTCC: MIAMI CENTER
FSS: MIAMI FLIGHT SERVICE STATION
Attendance: UNATNDD
Wind indicator: yes
Segmented circle: no
Lights: FOR PERIMETER LGTS CALL 305-265-2000, EXTN 5697.

Heliport Communications

WX ASOS at HWO (3 nm W): PHONE 954-983-5904
WX ASOS at FLL (4 nm NE): PHONE 954-359-7857
WX ASOS at OPF (8 nm SW): 125.9 (305-681-4063)
WX ASOS at FXE (11 nm N): PHONE 954-772-2537
WX ASOS at PMP (14 nm N): PHONE 954-783-3720
WX ASOS at MIA (15 nm SW): PHONE 305-870-0235

Nearby radio navigation aids

VOR radial/distance  VOR name  Freq  Var
FLLr200/3.4FORT LAUDERDALE VOR/DME114.4006W
DHPr039/15.9DOLPHIN VORTAC113.9004W
VKZr359/16.1VIRGINIA KEY VOR/DME117.1004W

Heliport Services

Runway Information

Helipad H1

Dimensions: 60 x 60 ft. / 18 x 18 m
Surface: concrete
Runway edge lights: PERI
Latitude: 26-01.125667N
Longitude: 080-10.879500W
Elevation: 62.0 ft.
Traffic pattern: leftleft

Heliport Ownership and Management from official FAA records

Ownership: Privately-owned
Owner: MEMORIAL RGNL HOSPITAL
3501 JOHNSON STREET
HOLLYWOOD, FL 33021
Phone 954-265-2000
Manager: THOMAS GINTER
3501 JOHNSON STREET
HOLLYWOOD, FL 33021
Phone 954-265-5544

Additional Remarks

A52-H1 80 FT BLDG 150 FT E; 144 FT TOWER 2500 FT ESE; & 65 FT BLDG 2300 FT ESE.
FOR CD CTC MIAMI APCH AT 305-869-5432.

Instrument Procedures

There are no published instrument procedures at 77FD.

Some nearby airports with instrument procedures:

KHWO - North Perry Airport (3 nm W)
KFLL - Fort Lauderdale/Hollywood International Airport (4 nm NE)
KOPF - Miami-Opa Locka Executive Airport (8 nm SW)
KFXE - Fort Lauderdale Executive Airport (11 nm N)
KPMP - Pompano Beach Airpark (14 nm N)
KMIA - Miami International Airport (15 nm SW)
 
Loc | Ops | Rwys | IFR | FBO | Links
Com | Nav | Svcs | Stats | Notes


 
Area around 77FD (Memorial Regional Hospital Heliport)
 
Road maps at: MapQuest Bing Google
 
Aerial photo
No photo
 
Sectional chart

 
Airport distance calculator
Flying to Memorial Regional Hospital Heliport? Find the distance to fly.

From to 77FD

Sunrise and sunset
Times for 21-Jan-2020
 Local
(UTC-5)
 Zulu
(UTC)
Morning civil twilight06:4511:45
Sunrise07:1012:10
Sunset17:5522:55
Evening civil twilight18:1923:19

Current date and time
Zulu (UTC)  21-Jan-2020 12:27:41
Local (UTC-5)  21-Jan-2020 07:27:41
 
METAR
KHWO 
3nm W 
211153Z 33009KT 10SM CLR 11/08 A3012 RMK AO2 SLP199 T01110083 10139 20111 53006
KFLL 
3nm NE 
211153Z 32005KT 10SM FEW015 FEW250 11/09 A3009 RMK AO2 SLP190 T01110089 10139 20111 53006
KOPF 
8nm SW 
211153Z 34012KT 10SM CLR 12/09 A3011 RMK AO2 SLP196 T01170094 10144 20117 53005
KFXE 
11nm N 
211153Z AUTO 32006KT 10SM CLR 11/08 A3010 RMK AO2 SLP194 T01060083 10139 20106 53005
KPMP 
14nm N 
211153Z 32010KT 7SM CLR 12/09 A3009 RMK AO2 SLP191 T01170089 10144 20117 53005
KMIA 
16nm SW 
211153Z 33007KT 10SM FEW013 FEW250 13/09 A3011 RMK AO2 SLP195 T01280094 10150 20128 53006
TAF
KFLL 
3nm NE 
211131Z 2112/2218 34010KT P6SM SCT250 FM211400 33012G20KT P6SM FEW050 SCT250 FM220200 35014KT P6SM FEW050 SCT250
KOPF 
8nm SW 
211131Z 2112/2212 33010KT P6SM SCT250 FM211400 33012G20KT P6SM FEW050 SCT250 FM220200 35014KT P6SM FEW050 SCT250
KFXE 
11nm N 
211131Z 2112/2212 32010KT P6SM SCT250 FM211400 32012G20KT P6SM FEW050 SCT250 FM220200 35014KT P6SM FEW050 SCT250
KMIA 
16nm SW 
211131Z 2112/2218 33010KT P6SM SCT250 FM211400 32012G20KT P6SM FEW050 SCT250 FM220200 35014KT P6SM FEW050 SCT250
NOTAMs
Click for the latest NOTAMs
NOTAMs are issued by the DoD/FAA and will open in a separate window not controlled by AirNav.

 

 
 

Would you like to see your business listed on this page?

 If your business provides an interesting product or service to pilots, flight crews, aircraft, or users of the Memorial Regional Hospital Heliport, you should consider listing it here.  To start the listing process, click on the button below
 
Add a business
 

Other Pages about Memorial Regional Hospital Heliport

Update a link
 
Copyright © AirNav, LLC. All rights reserved. Privacy Policy  Contact